Kahuku, Hawaii
Current Conditions -  °F | °C
As of 5:09 PM on Thursday 18 Dec 2014 (Local Time) from PHHI Reporting Station
Broken Clouds Broken Clouds  
Wind Chill: 22°   Ceiling: 2000
Heat Index: 22°   Visibility: 10mi
Dew Point: 19°   Wind: 5mph
Humidity: 83%   Direction: NA
Pressure: 30.08"   Gusts: NA
Location:  21.67°N, 157.94°W
Report Text: PHHI 190309Z AUTO VRB04KT 10SM BKN020 22/19 A3008 RMK AO2 DZB0302E0312 BKN V OVC $
Loading
Personal Weather Stations






























Interactive Weather Map New forecast layout! Learn more

10-Day Weather Forecast

Advertisements
Track Severe Weather on mobile